Aviation Digital Data Service (ADDS)

Output produced by METARs form (1021 UTC 07 December 2022)
found at http://www.aviationweather.gov/metar/data/
 
KTVR 070953Z AUTO 00000KT 10SM OVC012 21/19 A3017 RMK AO2 SLP223 T02110194
KTVR 070853Z AUTO 18004KT 10SM OVC014 22/19 A3016 RMK AO2 SLP219 T02170194 51015
KTVR 070846Z AUTO 19003KT 10SM OVC014 22/19 A3016 RMK AO2 T02170194
KTVR 070821Z AUTO 00000KT 10SM BKN015 22/19 A3015 RMK AO2 T02170194
KTVR 070753Z AUTO VRB03KT 10SM SCT019 22/19 A3015 RMK AO2 SLP214 T02170189
KTVR 070722Z AUTO 00000KT 10SM BKN017 22/19 A3014 RMK AO2 T02220194
KTVR 070653Z AUTO 00000KT 10SM SCT055 22/19 A3013 RMK AO2 SLP209 T02220189
KTVR 070553Z AUTO VRB03KT 10SM CLR 22/19 A3012 RMK AO2 SLP204 T02220189 10244 20217 402720200 51013
KTVR 070453Z AUTO VRB06KT 10SM CLR 23/18 A3010 RMK AO2 SLP200 T02280183
KTVR 070353Z AUTO 19003KT 10SM FEW060 23/18 A3009 RMK AO2 SLP195 T02280178
KTVR 070253Z AUTO 00000KT 10SM OVC060 23/18 A3008 RMK AO2 SLP191 T02280178 53014
KTVR 070153Z AUTO 18004KT 10SM CLR 22/17 A3006 RMK AO2 SLP184 T02220172
KTVR 070053Z AUTO 17005KT 10SM FEW045 SCT060 22/18 A3004 RMK AO2 SLP179 T02170178
KTVR 062353Z AUTO 18005KT 10SM BKN060 24/17 A3004 RMK AO2 SLP177 60000 T02390172 10272 20228 53010
KTVR 062253Z AUTO 19004KT 10SM OVC060 25/17 A3003 RMK AO2 SLP173 T02500172
KTVR 062153Z AUTO 18005KT 10SM SCT060 26/17 A3001 RMK AO2 SLP168 T02610172
KTVR 062053Z AUTO VRB04KT 10SM BKN055 26/18 A3001 RMK AO2 SLP167 60000 T02560178 55007
KTVR 061953Z AUTO VRB05KT 10SM BKN055 26/17 A3001 RMK AO2 SLP167 T02610172
KTVR 061853Z AUTO 10SM FEW039 BKN049 26/18 A3002 RMK AO2 RAE1758B10E22 SLP171 P0000 T02610178
KTVR 061753Z AUTO VRB04KT 10SM -RA FEW029 SCT037 SCT045 25/19 A3003 RMK AO2 RAB14E17B53 SLP174 P0000 6//// T02500189 10256 20217
KTVR 061653Z AUTO VRB05KT 10SM FEW024 FEW034 SCT044 25/19 A3006 RMK AO2 SLP183 T02500189
KTVR 061506Z AUTO VRB06G17KT 10SM SCT018 BKN025 23/19 A3004 RMK AO2 T02280194 $
KTVR 061453Z AUTO VRB04KT 10SM FEW018 SCT045 23/19 A3004 RMK AO2 SLP177 T02280189 52014 $
KTVR 061353Z AUTO 20007KT 160V230 10SM FEW046 22/19 A3002 RMK AO2 SLP172 T02170194 $
KTVR 061314Z AUTO VRB05KT 10SM FEW016 SCT035 BKN042 22/19 A3001 RMK AO2 T02170194 $
KTVR 061253Z AUTO VRB05KT 10SM FEW016 BKN023 BKN033 22/19 A3001 RMK AO2 SLP168 T02170194 $
KTVR 061153Z AUTO VRB04KT 10SM BKN018 OVC022 22/19 A3000 RMK AO2 SLP163 T02170194 10222 20200 53010 $
KTVR 061053Z AUTO VRB03KT 10SM BKN017 22/19 A2997 RMK AO2 SLP156 T02170194 $
KTVR 061034Z AUTO VRB05KT 10SM BKN017 BKN035 OVC050 22/19 A2997 RMK AO2 T02170194 $
KTVR 061000Z AUTO 10SM FEW018 BKN050 22/19 A2997 RMK AO2 T02220194 $
KTVR 060953Z AUTO VRB04KT 10SM SCT018 BKN025 BKN050 22/19 A2997 RMK AO2 SLP154 T02220194 $
KTVR 060853Z AUTO VRB05KT 10SM OVC018 22/19 A2996 RMK AO2 SLP152 T02220194 53007 $
KTVR 060653Z AUTO 18005KT 10SM OVC017 21/19 A2994 RMK AO2 SLP146 T02110189 $
KTVR 060622Z AUTO 18006KT 10SM BKN021 21/19 A2994 RMK AO2 T02060189 $
KTVR 060615Z AUTO 18006KT 10SM SCT023 21/18 A2994 RMK AO2 T02060183 $
KTVR 060553Z AUTO 18006KT 10SM BKN023 21/18 A2994 RMK AO2 SLP145 T02060183 10217 20194 402330106 51008 $
KTVR 060513Z AUTO 18004KT 10SM BKN023 21/18 A2994 RMK AO2 T02060183 $
KTVR 060453Z AUTO 18004KT 10SM FEW023 20/18 A2994 RMK AO2 SLP145 T02000183 $
KTVR 060353Z AUTO 18007KT 10SM CLR 21/18 A2993 RMK AO2 SLP141 T02060183 $
KTVR 060253Z AUTO 17006KT 10SM CLR 21/19 A2992 RMK AO2 SLP138 T02060189 53001 $
KTVR 060153Z AUTO 16005KT 10SM SCT070 20/18 A2992 RMK AO2 SLP139 T02000183 $
KTVR 060053Z AUTO 17007KT 10SM FEW070 22/19 A2991 RMK AO2 SLP135 T02170189 $
KTVR 052353Z AUTO 18006KT 10SM SCT049 BKN080 22/19 A2992 RMK AO2 SLP137 T02170189 10233 20206 52000 $
KTVR 052303Z AUTO 18004KT 10SM SCT025 SCT050 BKN065 23/19 A2992 RMK AO2 T02280189 $
KTVR 052253Z AUTO 18004KT 10SM BKN025 OVC070 23/19 A2992 RMK AO2 SLP137 T02280189 $
KTVR 052224Z AUTO VRB03KT 10SM SCT023 BKN028 OVC065 23/19 A2992 RMK AO2 T02330189 $
KTVR 052153Z AUTO VRB06KT 10SM FEW023 OVC070 23/19 A2992 RMK AO2 SLP137 T02330189 $
KTVR 052053Z AUTO VRB04KT 10SM SCT019 BKN075 23/19 A2992 RMK AO2 SLP137 T02280189 56009 $
KTVR 052051Z AUTO 21006KT 10SM SCT019 BKN075 23/19 A2992 RMK AO2 $
KTVR 051953Z AUTO 21004KT 10SM OVC016 22/18 A2993 RMK AO2 SLP140 T02170183 $
KTVR 051853Z AUTO VRB05KT 10SM OVC016 21/18 A2994 RMK AO2 SLP146 T02110183 $
KTVR 051801Z AUTO VRB05KT 10SM OVC015 21/18 A2997 RMK AO2 T02110183 $
KTVR 051753Z AUTO VRB04KT 10SM OVC014 21/18 A2997 RMK AO2 SLP156 T02110183 10211 20133 58016 $
KTVR 051653Z AUTO 18008KT 10SM OVC012 19/17 A3000 RMK AO2 SLP164 T01940172 $
KTVR 051621Z AUTO 18008KT 10SM OVC011 19/17 A3001 RMK AO2 T01890172 $
KTVR 051553Z AUTO 18006KT 8SM OVC008 18/17 A3001 RMK AO2 CIG 005V011 SLP169 T01830172 $
KTVR 051544Z AUTO 19005G15KT 7SM OVC006 18/17 A3002 RMK AO2 CIG 004V009 T01830172 $
KTVR 051530Z AUTO 18008KT 4SM BR OVC004 18/17 A3002 RMK AO2 T01780167 $
KTVR 051522Z AUTO 18006KT 2 1/2SM BR OVC004 18/17 A3002 RMK AO2 T01780167 $
KTVR 051515Z AUTO 18007KT 1 3/4SM BR OVC004 18/17 A3002 RMK AO2 T01780167 $
KTVR 051505Z AUTO 18006KT 1 1/2SM BR OVC005 17/17 A3002 RMK AO2 T01720167 $
KTVR 051453Z AUTO 18006KT 2 1/2SM BR OVC005 17/17 A3002 RMK AO2 SLP172 T01720167 51004 $
KTVR 051353Z AUTO 19004KT 7SM OVC007 17/15 A3001 RMK AO2 SLP169 T01670150 $
KTVR 051253Z AUTO VRB03KT 7SM OVC007 14/13 A3001 RMK AO2 SLP170 T01440133 $
KTVR 051153Z AUTO 00000KT 5SM BR OVC006 13/12 A3001 RMK AO2 SLP167 T01330122 10133 20106 55016 $
KTVR 051053Z AUTO 00000KT 4SM BR OVC006 12/11 A3000 RMK AO2 SLP167 T01220111 $
KTVR 050953Z AUTO 13003KT 4SM BR OVC005 12/11 A3002 RMK AO2 SLP173 T01170106 $
KTVR 050853Z AUTO 14003KT 8SM OVC007 11/10 A3005 RMK AO2 SLP183 T01110100 56020 $
KTVR 050753Z AUTO 00000KT 10SM OVC009 11/09 A3007 RMK AO2 SLP188 T01110089 $
KTVR 050714Z AUTO 00000KT 10SM OVC009 11/09 A3007 RMK AO2 T01060089 $
KTVR 050653Z AUTO 00000KT 10SM OVC010 11/09 A3008 RMK AO2 SLP193 T01110089 $
KTVR 050553Z AUTO 31003KT 10SM OVC012 11/09 A3011 RMK AO2 SLP204 T01060089 10122 20100 401500089 56010 $
KTVR 050453Z AUTO 34003KT 10SM OVC012 12/09 A3012 RMK AO2 SLP207 T01170089 $
KTVR 050353Z AUTO 00000KT 10SM BKN012 OVC060 12/09 A3013 RMK AO2 SLP208 T01170089 $
KTVR 050253Z AUTO 14003KT 10SM OVC065 11/09 A3014 RMK AO2 SLP214 T01060089 58014 $
KTVR 050215Z AUTO 12004KT 10SM SCT015 BKN070 11/08 A3015 RMK AO2 T01060083 $
KTVR 050153Z AUTO 09003KT 10SM OVC016 10/08 A3016 RMK AO2 SLP221 T01000083 $
KTVR 050053Z AUTO 02008KT 10SM OVC020 11/08 A3019 RMK AO2 SLP228 T01060083 $
KTVR 042353Z AUTO 33004KT 10SM OVC021 12/08 A3019 RMK AO2 SLP228 T01220078 10150 20122 53009 $
KTVR 042253Z AUTO 33005KT 10SM OVC020 13/08 A3017 RMK AO2 SLP224 T01280078 $
KTVR 042153Z AUTO 00000KT 10SM OVC018 14/08 A3016 RMK AO2 SLP221 T01440083 $
KTVR 042053Z AUTO 00000KT 10SM OVC016 14/08 A3016 RMK AO2 SLP220 T01440078 58039 $
KTVR 041953Z AUTO 00000KT 10SM OVC016 13/07 A3020 RMK AO2 SLP233 T01330067 $
KTVR 041853Z AUTO 02004KT 10SM OVC017 13/07 A3024 RMK AO2 SLP246 T01280067 $
KTVR 041753Z AUTO 35004KT 10SM OVC016 13/07 A3028 RMK AO2 SLP259 T01280067 10128 20089 58014
KTVR 041702Z AUTO VRB04KT 10SM OVC015 12/07 A3031 RMK AO2 T01220067
KTVR 041653Z AUTO 34004KT 10SM OVC014 12/07 A3031 RMK AO2 SLP272 T01220067
KTVR 041619Z AUTO 35003KT 10SM BKN014 OVC060 12/06 A3031 RMK AO2 T01220061
KTVR 041553Z AUTO 00000KT 10SM OVC060 11/06 A3032 RMK AO2 SLP274 T01060056
KTVR 041453Z AUTO 07005KT 10SM SCT014 OVC050 09/05 A3032 RMK AO2 SLP273 T00940050 50003
KTVR 041353Z AUTO 01005KT 10SM OVC012 09/04 A3032 RMK AO2 SLP274 T00890044
KTVR 041253Z AUTO 02007KT 10SM OVC013 09/04 A3031 RMK AO2 SLP270 T00890044
KTVR 041153Z AUTO 35005KT 10SM OVC013 09/05 A3031 RMK AO2 SLP269 T00890050 10100 20089 55004
KTVR 041053Z AUTO 01008KT 10SM OVC012 09/05 A3029 RMK AO2 SLP263 T00890050